sensor_id;sensor_type;location;lat;lon;timestamp;pressure;altitude;pressure_sealevel;temperature;humidity
66801;BME280;53703;50.326;19.122;2023-04-07T00:00:16;98647.38;;;17.30;37.43
66801;BME280;53703;50.326;19.122;2023-04-07T00:03:30;98642.68;;;17.31;37.64
66801;BME280;53703;50.326;19.122;2023-04-07T00:06:24;98637.77;;;17.27;37.79
66801;BME280;53703;50.326;19.122;2023-04-07T00:09:18;98636.14;;;17.33;37.52
66801;BME280;53703;50.326;19.122;2023-04-07T00:12:12;98638.62;;;17.27;37.56
66801;BME280;53703;50.326;19.122;2023-04-07T00:15:08;98634.50;;;17.29;37.72
66801;BME280;53703;50.326;19.122;2023-04-07T00:18:02;98628.21;;;17.26;37.62
66801;BME280;53703;50.326;19.122;2023-04-07T00:20:56;98625.73;;;17.33;37.08
66801;BME280;53703;50.326;19.122;2023-04-07T00:23:50;98621.23;;;17.33;37.39
66801;BME280;53703;50.326;19.122;2023-04-07T00:26:44;98619.70;;;17.29;37.46
66801;BME280;53703;50.326;19.122;2023-04-07T00:29:38;98614.66;;;17.35;37.36
66801;BME280;53703;50.326;19.122;2023-04-07T00:32:31;98613.73;;;17.30;37.17
66801;BME280;53703;50.326;19.122;2023-04-07T00:35:27;98609.70;;;17.30;37.45
66801;BME280;53703;50.326;19.122;2023-04-07T00:38:21;98610.70;;;17.32;37.54
66801;BME280;53703;50.326;19.122;2023-04-07T00:41:15;98602.50;;;17.39;37.37
66801;BME280;53703;50.326;19.122;2023-04-07T00:44:08;98604.83;;;17.33;37.31
66801;BME280;53703;50.326;19.122;2023-04-07T00:47:02;98604.26;;;17.37;37.03
66801;BME280;53703;50.326;19.122;2023-04-07T00:49:56;98603.44;;;17.34;37.29
66801;BME280;53703;50.326;19.122;2023-04-07T00:52:51;98598.88;;;17.34;37.32
66801;BME280;53703;50.326;19.122;2023-04-07T00:55:45;98594.98;;;17.35;37.17
66801;BME280;53703;50.326;19.122;2023-04-07T00:58:24;98599.34;;;17.36;37.34
66801;BME280;53703;50.326;19.122;2023-04-07T01:01:23;98595.38;;;17.33;36.58
66801;BME280;53703;50.326;19.122;2023-04-07T01:04:29;98594.57;;;17.35;36.74
66801;BME280;53703;50.326;19.122;2023-04-07T01:07:31;98587.55;;;17.32;37.53
66801;BME280;53703;50.326;19.122;2023-04-07T01:10:30;98585.81;;;17.34;37.88
66801;BME280;53703;50.326;19.122;2023-04-07T01:13:29;98584.89;;;17.35;37.61
66801;BME280;53703;50.326;19.122;2023-04-07T01:16:30;98585.30;;;17.38;37.73
66801;BME280;53703;50.326;19.122;2023-04-07T01:19:36;98584.40;;;17.37;37.95
66801;BME280;53703;50.326;19.122;2023-04-07T01:22:35;98579.73;;;17.26;37.99
66801;BME280;53703;50.326;19.122;2023-04-07T01:25:58;98584.45;;;17.32;37.61
66801;BME280;53703;50.326;19.122;2023-04-07T01:29:10;98585.15;;;17.33;37.88
66801;BME280;53703;50.326;19.122;2023-04-07T01:32:10;98582.02;;;17.37;37.45
66801;BME280;53703;50.326;19.122;2023-04-07T01:35:24;98584.41;;;17.37;37.50
66801;BME280;53703;50.326;19.122;2023-04-07T01:38:19;98585.23;;;17.36;37.65
66801;BME280;53703;50.326;19.122;2023-04-07T01:41:15;98582.54;;;17.33;37.76
66801;BME280;53703;50.326;19.122;2023-04-07T01:44:10;98580.48;;;17.28;37.35
66801;BME280;53703;50.326;19.122;2023-04-07T01:47:04;98570.56;;;17.30;37.61
66801;BME280;53703;50.326;19.122;2023-04-07T01:49:59;98572.33;;;17.39;37.40
66801;BME280;53703;50.326;19.122;2023-04-07T01:52:55;98573.89;;;17.36;37.39
66801;BME280;53703;50.326;19.122;2023-04-07T01:55:49;98565.42;;;17.35;37.74
66801;BME280;53703;50.326;19.122;2023-04-07T01:58:45;98564.64;;;17.33;37.72
66801;BME280;53703;50.326;19.122;2023-04-07T02:01:39;98564.88;;;17.35;37.04
66801;BME280;53703;50.326;19.122;2023-04-07T02:04:36;98569.07;;;17.38;37.21
66801;BME280;53703;50.326;19.122;2023-04-07T02:07:47;98572.83;;;17.38;37.08
66801;BME280;53703;50.326;19.122;2023-04-07T02:10:45;98567.40;;;17.38;37.10
66801;BME280;53703;50.326;19.122;2023-04-07T02:14:00;98567.56;;;17.35;37.50
66801;BME280;53703;50.326;19.122;2023-04-07T02:16:55;98566.64;;;17.39;37.27
66801;BME280;53703;50.326;19.122;2023-04-07T02:19:50;98573.95;;;17.36;37.23
66801;BME280;53703;50.326;19.122;2023-04-07T02:22:45;98568.62;;;17.39;36.97
66801;BME280;53703;50.326;19.122;2023-04-07T02:25:39;98570.66;;;17.36;37.04
66801;BME280;53703;50.326;19.122;2023-04-07T02:28:32;98574.73;;;17.35;37.24
66801;BME280;53703;50.326;19.122;2023-04-07T02:31:26;98574.24;;;17.35;37.39
66801;BME280;53703;50.326;19.122;2023-04-07T02:34:21;98580.38;;;17.35;37.65
66801;BME280;53703;50.326;19.122;2023-04-07T02:37:14;98575.02;;;17.37;37.47
66801;BME280;53703;50.326;19.122;2023-04-07T02:40:10;98573.48;;;17.28;37.63
66801;BME280;53703;50.326;19.122;2023-04-07T02:43:04;98570.71;;;17.35;37.68
66801;BME280;53703;50.326;19.122;2023-04-07T02:45:58;98565.89;;;17.35;37.48
66801;BME280;53703;50.326;19.122;2023-04-07T02:48:52;98563.09;;;17.34;37.52
66801;BME280;53703;50.326;19.122;2023-04-07T02:51:45;98568.19;;;17.30;37.18
66801;BME280;53703;50.326;19.122;2023-04-07T02:54:39;98562.80;;;17.32;37.37
66801;BME280;53703;50.326;19.122;2023-04-07T02:57:33;98556.10;;;17.32;37.70
66801;BME280;53703;50.326;19.122;2023-04-07T03:00:27;98555.60;;;17.31;37.68
66801;BME280;53703;50.326;19.122;2023-04-07T03:03:21;98551.39;;;17.32;37.59
66801;BME280;53703;50.326;19.122;2023-04-07T03:06:15;98556.52;;;17.35;37.10
66801;BME280;53703;50.326;19.122;2023-04-07T03:09:08;98557.45;;;17.35;37.47
66801;BME280;53703;50.326;19.122;2023-04-07T03:12:02;98557.63;;;17.33;37.33
66801;BME280;53703;50.326;19.122;2023-04-07T03:14:56;98553.25;;;17.31;37.17
66801;BME280;53703;50.326;19.122;2023-04-07T03:17:49;98555.35;;;17.40;37.43
66801;BME280;53703;50.326;19.122;2023-04-07T03:20:44;98554.55;;;17.40;37.04
66801;BME280;53703;50.326;19.122;2023-04-07T03:23:38;98546.55;;;17.34;37.33
66801;BME280;53703;50.326;19.122;2023-04-07T03:26:32;98541.45;;;17.32;37.19
66801;BME280;53703;50.326;19.122;2023-04-07T03:29:26;98544.17;;;17.31;37.37
66801;BME280;53703;50.326;19.122;2023-04-07T03:32:19;98547.77;;;17.38;37.12
66801;BME280;53703;50.326;19.122;2023-04-07T03:35:14;98554.98;;;17.37;36.97
66801;BME280;53703;50.326;19.122;2023-04-07T03:38:07;98556.73;;;17.34;36.99
66801;BME280;53703;50.326;19.122;2023-04-07T03:41:01;98556.95;;;17.34;36.84
66801;BME280;53703;50.326;19.122;2023-04-07T03:43:55;98554.14;;;17.35;37.42
66801;BME280;53703;50.326;19.122;2023-04-07T03:46:49;98548.85;;;17.30;36.57
66801;BME280;53703;50.326;19.122;2023-04-07T03:49:45;98552.26;;;17.24;36.77
66801;BME280;53703;50.326;19.122;2023-04-07T03:52:39;98553.23;;;17.41;36.74
66801;BME280;53703;50.326;19.122;2023-04-07T03:55:33;98553.90;;;17.42;36.99
66801;BME280;53703;50.326;19.122;2023-04-07T03:58:27;98552.19;;;17.33;37.38
66801;BME280;53703;50.326;19.122;2023-04-07T04:01:21;98549.42;;;17.35;37.20
66801;BME280;53703;50.326;19.122;2023-04-07T04:04:15;98547.08;;;17.33;37.55
66801;BME280;53703;50.326;19.122;2023-04-07T04:07:09;98546.58;;;17.35;37.44
66801;BME280;53703;50.326;19.122;2023-04-07T04:10:03;98550.11;;;17.35;37.26
66801;BME280;53703;50.326;19.122;2023-04-07T04:12:57;98550.38;;;17.30;37.54
66801;BME280;53703;50.326;19.122;2023-04-07T04:15:52;98552.13;;;17.28;37.34
66801;BME280;53703;50.326;19.122;2023-04-07T04:18:46;98547.69;;;17.30;37.54
66801;BME280;53703;50.326;19.122;2023-04-07T04:21:39;98549.67;;;17.38;37.45
66801;BME280;53703;50.326;19.122;2023-04-07T04:24:33;98554.33;;;17.28;37.66
66801;BME280;53703;50.326;19.122;2023-04-07T04:27:27;98552.20;;;17.28;37.71
66801;BME280;53703;50.326;19.122;2023-04-07T04:30:21;98550.96;;;17.28;37.68
66801;BME280;53703;50.326;19.122;2023-04-07T04:33:14;98550.13;;;17.32;37.42
66801;BME280;53703;50.326;19.122;2023-04-07T04:36:09;98551.92;;;17.37;37.36
66801;BME280;53703;50.326;19.122;2023-04-07T04:39:03;98554.06;;;17.37;37.58
66801;BME280;53703;50.326;19.122;2023-04-07T04:41:56;98558.77;;;17.36;37.25
66801;BME280;53703;50.326;19.122;2023-04-07T04:44:50;98559.66;;;17.40;36.21
66801;BME280;53703;50.326;19.122;2023-04-07T04:47:44;98562.14;;;17.49;35.96
66801;BME280;53703;50.326;19.122;2023-04-07T04:50:38;98570.70;;;17.24;38.10
66801;BME280;53703;50.326;19.122;2023-04-07T04:53:31;98571.47;;;17.29;37.39
66801;BME280;53703;50.326;19.122;2023-04-07T04:56:25;98567.30;;;17.32;37.23
66801;BME280;53703;50.326;19.122;2023-04-07T04:59:19;98569.17;;;17.41;37.42
66801;BME280;53703;50.326;19.122;2023-04-07T05:02:14;98569.87;;;17.39;37.43
66801;BME280;53703;50.326;19.122;2023-04-07T05:05:09;98569.89;;;17.29;37.21
66801;BME280;53703;50.326;19.122;2023-04-07T05:08:03;98567.40;;;17.33;37.26
66801;BME280;53703;50.326;19.122;2023-04-07T05:10:57;98563.48;;;17.34;37.34
66801;BME280;53703;50.326;19.122;2023-04-07T05:13:51;98561.85;;;17.37;36.98
66801;BME280;53703;50.326;19.122;2023-04-07T05:16:45;98571.17;;;17.37;37.04
66801;BME280;53703;50.326;19.122;2023-04-07T05:19:39;98570.92;;;17.40;37.41
66801;BME280;53703;50.326;19.122;2023-04-07T05:22:33;98573.33;;;17.38;37.41
66801;BME280;53703;50.326;19.122;2023-04-07T05:25:27;98571.24;;;17.32;37.54
66801;BME280;53703;50.326;19.122;2023-04-07T05:28:21;98562.96;;;17.56;37.05
66801;BME280;53703;50.326;19.122;2023-04-07T05:31:16;98558.38;;;17.77;36.68
66801;BME280;53703;50.326;19.122;2023-04-07T05:34:09;98557.05;;;17.56;37.16
66801;BME280;53703;50.326;19.122;2023-04-07T05:37:03;98558.36;;;17.49;37.50
66801;BME280;53703;50.326;19.122;2023-04-07T05:39:57;98563.48;;;17.79;35.32
66801;BME280;53703;50.326;19.122;2023-04-07T05:42:51;98570.44;;;17.83;34.15
66801;BME280;53703;50.326;19.122;2023-04-07T05:45:45;98575.88;;;17.79;34.10
66801;BME280;53703;50.326;19.122;2023-04-07T05:48:39;98585.65;;;17.77;35.74
66801;BME280;53703;50.326;19.122;2023-04-07T05:51:32;98587.64;;;17.96;35.34
66801;BME280;53703;50.326;19.122;2023-04-07T05:54:26;98585.27;;;17.91;33.35
66801;BME280;53703;50.326;19.122;2023-04-07T05:57:20;98579.30;;;18.00;33.25
66801;BME280;53703;50.326;19.122;2023-04-07T05:59:57;98576.11;;;18.40;34.57
66801;BME280;53703;50.326;19.122;2023-04-07T06:02:52;98574.60;;;18.04;35.36
66801;BME280;53703;50.326;19.122;2023-04-07T06:05:47;98575.55;;;18.02;36.44
66801;BME280;53703;50.326;19.122;2023-04-07T06:08:41;98575.52;;;17.89;37.22
66801;BME280;53703;50.326;19.122;2023-04-07T06:11:34;98574.11;;;17.95;36.50
66801;BME280;53703;50.326;19.122;2023-04-07T06:14:29;98573.34;;;17.99;36.26
66801;BME280;53703;50.326;19.122;2023-04-07T06:17:23;98567.69;;;18.06;36.40
66801;BME280;53703;50.326;19.122;2023-04-07T06:20:17;98565.98;;;17.62;36.08
66801;BME280;53703;50.326;19.122;2023-04-07T06:23:12;98564.42;;;17.47;37.12
66801;BME280;53703;50.326;19.122;2023-04-07T06:26:06;98568.00;;;17.56;37.01
66801;BME280;53703;50.326;19.122;2023-04-07T06:29:02;98569.23;;;17.55;36.89
66801;BME280;53703;50.326;19.122;2023-04-07T06:31:57;98561.39;;;17.48;38.26
66801;BME280;53703;50.326;19.122;2023-04-07T06:34:51;98558.09;;;17.50;37.89
66801;BME280;53703;50.326;19.122;2023-04-07T06:37:45;98551.27;;;17.52;37.86
66801;BME280;53703;50.326;19.122;2023-04-07T06:40:39;98551.83;;;17.52;38.14
66801;BME280;53703;50.326;19.122;2023-04-07T06:43:33;98559.40;;;17.55;38.35
66801;BME280;53703;50.326;19.122;2023-04-07T06:46:26;98559.92;;;17.65;37.51
66801;BME280;53703;50.326;19.122;2023-04-07T06:49:20;98564.45;;;17.86;36.31
66801;BME280;53703;50.326;19.122;2023-04-07T06:52:14;98571.36;;;17.65;36.30
66801;BME280;53703;50.326;19.122;2023-04-07T06:55:10;98573.75;;;17.86;36.20
66801;BME280;53703;50.326;19.122;2023-04-07T06:58:03;98575.59;;;17.56;40.64
66801;BME280;53703;50.326;19.122;2023-04-07T07:00:57;98577.53;;;15.35;46.07
66801;BME280;53703;50.326;19.122;2023-04-07T07:03:51;98574.32;;;13.99;45.53
66801;BME280;53703;50.326;19.122;2023-04-07T07:06:45;98578.81;;;13.52;42.96
66801;BME280;53703;50.326;19.122;2023-04-07T07:09:39;98574.70;;;13.63;42.17
66801;BME280;53703;50.326;19.122;2023-04-07T07:12:32;98571.43;;;15.34;41.59
66801;BME280;53703;50.326;19.122;2023-04-07T07:15:26;98567.84;;;16.33;39.99
66801;BME280;53703;50.326;19.122;2023-04-07T07:18:20;98566.69;;;16.50;39.88
66801;BME280;53703;50.326;19.122;2023-04-07T07:21:15;98568.96;;;16.51;39.77
66801;BME280;53703;50.326;19.122;2023-04-07T07:24:09;98566.46;;;16.71;39.24
66801;BME280;53703;50.326;19.122;2023-04-07T07:27:03;98578.77;;;16.64;39.14
66801;BME280;53703;50.326;19.122;2023-04-07T07:29:57;98584.05;;;16.77;38.81
66801;BME280;53703;50.326;19.122;2023-04-07T07:32:51;98594.89;;;16.81;38.51
66801;BME280;53703;50.326;19.122;2023-04-07T07:35:45;98595.04;;;17.00;37.76
66801;BME280;53703;50.326;19.122;2023-04-07T07:38:40;98596.89;;;16.87;38.19
66801;BME280;53703;50.326;19.122;2023-04-07T07:41:33;98593.74;;;16.89;37.38
66801;BME280;53703;50.326;19.122;2023-04-07T07:44:28;98603.95;;;16.79;38.02
66801;BME280;53703;50.326;19.122;2023-04-07T07:47:23;98603.59;;;16.82;37.89
66801;BME280;53703;50.326;19.122;2023-04-07T07:50:11;98604.87;;;16.80;38.14
66801;BME280;53703;50.326;19.122;2023-04-07T07:53:04;98586.61;;;16.83;38.85
66801;BME280;53703;50.326;19.122;2023-04-07T07:55:58;98589.92;;;17.00;38.37
66801;BME280;53703;50.326;19.122;2023-04-07T07:58:53;98586.52;;;17.32;37.80
66801;BME280;53703;50.326;19.122;2023-04-07T08:01:48;98589.77;;;17.37;36.95
66801;BME280;53703;50.326;19.122;2023-04-07T08:04:42;98585.31;;;17.52;37.48
66801;BME280;53703;50.326;19.122;2023-04-07T08:07:36;98574.19;;;15.55;38.51
66801;BME280;53703;50.326;19.122;2023-04-07T08:10:29;98570.30;;;16.59;38.63
66801;BME280;53703;50.326;19.122;2023-04-07T08:13:23;98577.30;;;17.04;38.14
66801;BME280;53703;50.326;19.122;2023-04-07T08:16:17;98581.89;;;17.12;37.77
66801;BME280;53703;50.326;19.122;2023-04-07T08:19:12;98591.61;;;17.04;38.01
66801;BME280;53703;50.326;19.122;2023-04-07T08:22:06;98596.84;;;17.00;37.74
66801;BME280;53703;50.326;19.122;2023-04-07T08:25:00;98595.88;;;17.11;37.24
66801;BME280;53703;50.326;19.122;2023-04-07T08:27:54;98590.81;;;16.98;37.11
66801;BME280;53703;50.326;19.122;2023-04-07T08:30:48;98588.28;;;17.05;37.12
66801;BME280;53703;50.326;19.122;2023-04-07T08:33:42;98583.61;;;16.92;37.88
66801;BME280;53703;50.326;19.122;2023-04-07T08:36:35;98579.46;;;16.84;37.79
66801;BME280;53703;50.326;19.122;2023-04-07T08:39:29;98582.42;;;17.02;37.55
66801;BME280;53703;50.326;19.122;2023-04-07T08:42:26;98587.65;;;16.88;37.83
66801;BME280;53703;50.326;19.122;2023-04-07T08:45:20;98589.77;;;16.93;37.76
66801;BME280;53703;50.326;19.122;2023-04-07T08:48:17;98590.27;;;16.91;37.84
66801;BME280;53703;50.326;19.122;2023-04-07T08:51:13;98586.66;;;16.92;37.40
66801;BME280;53703;50.326;19.122;2023-04-07T08:54:10;98586.86;;;16.76;37.77
66801;BME280;53703;50.326;19.122;2023-04-07T08:57:05;98592.86;;;16.87;37.74
66801;BME280;53703;50.326;19.122;2023-04-07T09:00:01;98596.24;;;16.83;37.95
66801;BME280;53703;50.326;19.122;2023-04-07T09:02:57;98594.91;;;16.80;37.76
66801;BME280;53703;50.326;19.122;2023-04-07T09:05:55;98594.06;;;16.75;38.00
66801;BME280;53703;50.326;19.122;2023-04-07T09:08:49;98585.17;;;16.90;37.61
66801;BME280;53703;50.326;19.122;2023-04-07T09:11:43;98581.80;;;16.73;37.59
66801;BME280;53703;50.326;19.122;2023-04-07T09:14:38;98582.13;;;16.81;37.55
66801;BME280;53703;50.326;19.122;2023-04-07T09:17:32;98572.10;;;16.61;37.50
66801;BME280;53703;50.326;19.122;2023-04-07T09:20:54;98565.16;;;16.84;37.90
66801;BME280;53703;50.326;19.122;2023-04-07T09:23:50;98561.74;;;16.81;37.22
66801;BME280;53703;50.326;19.122;2023-04-07T09:26:43;98559.28;;;16.73;37.25
66801;BME280;53703;50.326;19.122;2023-04-07T09:29:40;98563.62;;;16.71;37.34
66801;BME280;53703;50.326;19.122;2023-04-07T09:32:38;98568.20;;;16.71;37.22
66801;BME280;53703;50.326;19.122;2023-04-07T09:35:33;98572.23;;;16.81;37.67
66801;BME280;53703;50.326;19.122;2023-04-07T09:38:44;98566.06;;;16.88;37.68
66801;BME280;53703;50.326;19.122;2023-04-07T09:41:38;98568.73;;;16.66;38.00
66801;BME280;53703;50.326;19.122;2023-04-07T09:44:53;98566.97;;;16.96;37.35
66801;BME280;53703;50.326;19.122;2023-04-07T09:47:46;98565.27;;;16.71;37.63
66801;BME280;53703;50.326;19.122;2023-04-07T09:50:41;98562.71;;;16.77;37.61
66801;BME280;53703;50.326;19.122;2023-04-07T09:53:48;98565.56;;;16.92;37.23
66801;BME280;53703;50.326;19.122;2023-04-07T09:56:43;98568.45;;;16.86;39.34
66801;BME280;53703;50.326;19.122;2023-04-07T09:59:38;98567.15;;;16.78;38.79
66801;BME280;53703;50.326;19.122;2023-04-07T10:02:34;98564.92;;;16.50;39.68
66801;BME280;53703;50.326;19.122;2023-04-07T10:05:28;98565.96;;;17.42;38.64
66801;BME280;53703;50.326;19.122;2023-04-07T10:08:23;98569.92;;;17.57;37.40
66801;BME280;53703;50.326;19.122;2023-04-07T10:11:17;98564.02;;;18.01;37.44
66801;BME280;53703;50.326;19.122;2023-04-07T10:14:13;98562.86;;;17.58;38.25
66801;BME280;53703;50.326;19.122;2023-04-07T10:17:07;98564.20;;;17.55;38.73
66801;BME280;53703;50.326;19.122;2023-04-07T10:20:02;98568.57;;;17.57;38.82
66801;BME280;53703;50.326;19.122;2023-04-07T10:23:01;98572.05;;;17.46;39.73
66801;BME280;53703;50.326;19.122;2023-04-07T10:25:58;98568.58;;;17.65;39.41
66801;BME280;53703;50.326;19.122;2023-04-07T10:28:56;98575.40;;;17.77;38.18
66801;BME280;53703;50.326;19.122;2023-04-07T10:32:12;98579.14;;;18.12;40.73
66801;BME280;53703;50.326;19.122;2023-04-07T10:35:08;98577.23;;;18.05;37.69
66801;BME280;53703;50.326;19.122;2023-04-07T10:38:16;98574.45;;;18.02;39.71
66801;BME280;53703;50.326;19.122;2023-04-07T10:41:34;98570.56;;;18.20;37.94
66801;BME280;53703;50.326;19.122;2023-04-07T10:44:50;98569.23;;;18.21;37.22
66801;BME280;53703;50.326;19.122;2023-04-07T10:48:13;98570.98;;;18.05;38.64
66801;BME280;53703;50.326;19.122;2023-04-07T10:51:20;98567.80;;;18.06;37.77
66801;BME280;53703;50.326;19.122;2023-04-07T10:54:21;98569.66;;;18.34;37.17
66801;BME280;53703;50.326;19.122;2023-04-07T10:57:20;98574.09;;;18.25;37.57
66801;BME280;53703;50.326;19.122;2023-04-07T11:00:20;98568.04;;;18.35;39.09
66801;BME280;53703;50.326;19.122;2023-04-07T11:03:14;98562.65;;;18.44;37.80
66801;BME280;53703;50.326;19.122;2023-04-07T11:06:10;98560.02;;;18.49;37.75
66801;BME280;53703;50.326;19.122;2023-04-07T11:09:04;98558.67;;;18.40;37.24
66801;BME280;53703;50.326;19.122;2023-04-07T11:11:58;98559.17;;;18.47;37.13
66801;BME280;53703;50.326;19.122;2023-04-07T11:14:51;98554.27;;;18.47;36.38
66801;BME280;53703;50.326;19.122;2023-04-07T11:17:45;98556.98;;;18.63;37.89
66801;BME280;53703;50.326;19.122;2023-04-07T11:20:58;98554.26;;;18.61;37.47
66801;BME280;53703;50.326;19.122;2023-04-07T11:23:52;98554.23;;;18.55;36.93
66801;BME280;53703;50.326;19.122;2023-04-07T11:26:45;98547.77;;;18.64;37.09
66801;BME280;53703;50.326;19.122;2023-04-07T11:29:42;98545.05;;;18.76;37.65
66801;BME280;53703;50.326;19.122;2023-04-07T11:32:36;98546.64;;;18.79;37.99
66801;BME280;53703;50.326;19.122;2023-04-07T11:35:29;98550.02;;;18.66;38.16
66801;BME280;53703;50.326;19.122;2023-04-07T11:38:25;98544.85;;;18.94;38.07
66801;BME280;53703;50.326;19.122;2023-04-07T11:41:19;98542.42;;;18.85;37.98
66801;BME280;53703;50.326;19.122;2023-04-07T11:44:14;98543.98;;;18.87;38.21
66801;BME280;53703;50.326;19.122;2023-04-07T11:47:08;98546.79;;;18.89;36.63
66801;BME280;53703;50.326;19.122;2023-04-07T11:50:02;98544.13;;;19.03;39.03
66801;BME280;53703;50.326;19.122;2023-04-07T11:52:55;98543.23;;;18.69;38.60
66801;BME280;53703;50.326;19.122;2023-04-07T11:55:49;98543.79;;;18.79;36.89
66801;BME280;53703;50.326;19.122;2023-04-07T11:58:56;98547.90;;;18.73;37.83
66801;BME280;53703;50.326;19.122;2023-04-07T12:01:51;98554.57;;;18.81;37.50
66801;BME280;53703;50.326;19.122;2023-04-07T12:04:58;98557.69;;;18.86;37.50
66801;BME280;53703;50.326;19.122;2023-04-07T12:07:56;98564.35;;;18.90;37.26
66801;BME280;53703;50.326;19.122;2023-04-07T12:10:49;98562.53;;;18.83;37.39
66801;BME280;53703;50.326;19.122;2023-04-07T12:13:56;98558.48;;;18.73;37.60
66801;BME280;53703;50.326;19.122;2023-04-07T12:16:50;98557.91;;;18.75;37.46
66801;BME280;53703;50.326;19.122;2023-04-07T12:19:47;98550.30;;;18.74;39.69
66801;BME280;53703;50.326;19.122;2023-04-07T12:22:42;98556.33;;;18.78;38.67
66801;BME280;53703;50.326;19.122;2023-04-07T12:25:35;98553.94;;;18.84;38.75
66801;BME280;53703;50.326;19.122;2023-04-07T12:28:29;98548.83;;;19.05;38.52
66801;BME280;53703;50.326;19.122;2023-04-07T12:31:23;98551.27;;;19.04;38.14
66801;BME280;53703;50.326;19.122;2023-04-07T12:34:17;98553.85;;;18.97;38.37
66801;BME280;53703;50.326;19.122;2023-04-07T12:37:11;98547.71;;;18.98;38.64
66801;BME280;53703;50.326;19.122;2023-04-07T12:40:06;98550.03;;;18.80;38.10
66801;BME280;53703;50.326;19.122;2023-04-07T12:43:00;98550.02;;;18.69;38.40
66801;BME280;53703;50.326;19.122;2023-04-07T12:45:39;98552.55;;;18.66;38.41
66801;BME280;53703;50.326;19.122;2023-04-07T12:48:33;98550.79;;;18.81;38.54
66801;BME280;53703;50.326;19.122;2023-04-07T12:51:28;98552.44;;;19.01;37.53
66801;BME280;53703;50.326;19.122;2023-04-07T12:54:21;98557.41;;;18.90;38.50
66801;BME280;53703;50.326;19.122;2023-04-07T12:57:15;98550.26;;;18.88;39.04
66801;BME280;53703;50.326;19.122;2023-04-07T13:00:12;98551.71;;;19.00;39.13
66801;BME280;53703;50.326;19.122;2023-04-07T13:03:06;98552.58;;;19.07;37.86
66801;BME280;53703;50.326;19.122;2023-04-07T13:05:59;98551.73;;;19.11;38.80
66801;BME280;53703;50.326;19.122;2023-04-07T13:08:53;98549.95;;;18.79;38.43
66801;BME280;53703;50.326;19.122;2023-04-07T13:11:47;98554.80;;;18.68;38.80
66801;BME280;53703;50.326;19.122;2023-04-07T13:14:42;98556.84;;;18.51;38.13
66801;BME280;53703;50.326;19.122;2023-04-07T13:17:50;98556.81;;;18.50;38.72
66801;BME280;53703;50.326;19.122;2023-04-07T13:20:44;98558.23;;;18.50;40.04
66801;BME280;53703;50.326;19.122;2023-04-07T13:23:58;98558.17;;;18.96;39.96
66801;BME280;53703;50.326;19.122;2023-04-07T13:26:52;98563.82;;;18.61;39.80
66801;BME280;53703;50.326;19.122;2023-04-07T13:29:46;98562.61;;;18.45;39.83
66801;BME280;53703;50.326;19.122;2023-04-07T13:32:25;98565.60;;;18.42;39.94
66801;BME280;53703;50.326;19.122;2023-04-07T13:35:19;98563.88;;;18.48;38.98
66801;BME280;53703;50.326;19.122;2023-04-07T13:38:12;98565.58;;;18.53;38.62
66801;BME280;53703;50.326;19.122;2023-04-07T13:41:06;98570.27;;;18.93;39.38
66801;BME280;53703;50.326;19.122;2023-04-07T13:44:00;98572.18;;;19.03;38.16
66801;BME280;53703;50.326;19.122;2023-04-07T13:46:55;98571.47;;;19.00;38.22
66801;BME280;53703;50.326;19.122;2023-04-07T13:49:49;98572.41;;;19.24;37.35
66801;BME280;53703;50.326;19.122;2023-04-07T13:52:44;98569.55;;;18.99;38.27
66801;BME280;53703;50.326;19.122;2023-04-07T13:55:38;98571.77;;;18.70;39.48
66801;BME280;53703;50.326;19.122;2023-04-07T13:58:32;98571.56;;;18.85;37.67
66801;BME280;53703;50.326;19.122;2023-04-07T14:01:25;98573.58;;;18.57;37.91
66801;BME280;53703;50.326;19.122;2023-04-07T14:04:19;98573.02;;;18.57;38.03
66801;BME280;53703;50.326;19.122;2023-04-07T14:07:14;98571.70;;;18.67;37.74
66801;BME280;53703;50.326;19.122;2023-04-07T14:10:09;98570.71;;;18.95;37.82
66801;BME280;53703;50.326;19.122;2023-04-07T14:12:45;98572.17;;;19.09;37.74
66801;BME280;53703;50.326;19.122;2023-04-07T14:15:40;98570.21;;;19.17;36.89
66801;BME280;53703;50.326;19.122;2023-04-07T14:18:33;98571.79;;;19.03;37.96
66801;BME280;53703;50.326;19.122;2023-04-07T14:21:28;98572.95;;;19.22;38.27
66801;BME280;53703;50.326;19.122;2023-04-07T14:24:22;98572.17;;;19.29;38.13
66801;BME280;53703;50.326;19.122;2023-04-07T14:27:16;98568.44;;;19.19;38.33
66801;BME280;53703;50.326;19.122;2023-04-07T14:30:14;98568.13;;;19.29;38.21
66801;BME280;53703;50.326;19.122;2023-04-07T14:33:08;98568.50;;;19.32;38.58
66801;BME280;53703;50.326;19.122;2023-04-07T14:36:02;98565.23;;;19.48;38.06
66801;BME280;53703;50.326;19.122;2023-04-07T14:38:55;98563.98;;;19.63;38.31
66801;BME280;53703;50.326;19.122;2023-04-07T14:41:49;98564.48;;;19.43;38.76
66801;BME280;53703;50.326;19.122;2023-04-07T14:44:43;98568.58;;;17.17;40.42
66801;BME280;53703;50.326;19.122;2023-04-07T14:47:37;98566.92;;;17.33;41.01
66801;BME280;53703;50.326;19.122;2023-04-07T14:50:32;98561.18;;;18.79;39.74
66801;BME280;53703;50.326;19.122;2023-04-07T14:53:25;98560.08;;;19.23;39.14
66801;BME280;53703;50.326;19.122;2023-04-07T14:56:19;98558.25;;;19.19;38.43
66801;BME280;53703;50.326;19.122;2023-04-07T14:59:14;98560.48;;;19.20;38.22
66801;BME280;53703;50.326;19.122;2023-04-07T15:02:08;98555.34;;;19.09;38.84
66801;BME280;53703;50.326;19.122;2023-04-07T15:05:02;98555.10;;;18.96;38.93
66801;BME280;53703;50.326;19.122;2023-04-07T15:07:56;98559.33;;;19.01;38.60
66801;BME280;53703;50.326;19.122;2023-04-07T15:10:50;98562.23;;;19.03;38.60
66801;BME280;53703;50.326;19.122;2023-04-07T15:13:44;98563.34;;;19.09;38.47
66801;BME280;53703;50.326;19.122;2023-04-07T15:16:38;98564.97;;;19.09;39.91